createdAt,value
2023-04-01T00:00:58.617Z,26.23
2023-04-01T00:01:58.642Z,26.24
2023-04-01T00:02:58.799Z,26.31
2023-04-01T00:03:58.789Z,26.30
2023-04-01T00:04:58.788Z,26.31
2023-04-01T00:05:58.804Z,26.25
2023-04-01T00:06:58.825Z,26.24
2023-04-01T00:07:58.872Z,26.18
2023-04-01T00:08:58.915Z,26.19
2023-04-01T00:09:58.974Z,26.17
2023-04-01T00:10:58.993Z,26.18
2023-04-01T00:11:59.016Z,26.18
2023-04-01T00:12:59.050Z,26.21
2023-04-01T00:13:59.092Z,26.18
2023-04-01T00:14:59.137Z,26.18
2023-04-01T00:16:00.224Z,26.16
2023-04-01T00:16:59.265Z,26.16
2023-04-01T00:17:59.284Z,26.14
2023-04-01T00:18:59.278Z,26.14
2023-04-01T00:19:59.354Z,26.17
2023-04-01T00:20:59.381Z,26.21
2023-04-01T00:21:59.410Z,26.24
2023-04-01T00:22:59.433Z,26.29
2023-04-01T00:23:59.481Z,26.30
2023-04-01T00:24:59.538Z,26.31
2023-04-01T00:25:59.543Z,26.32
2023-04-01T00:26:59.598Z,26.33
2023-04-01T00:27:59.637Z,26.34
2023-04-01T00:28:59.658Z,26.35
2023-04-01T00:29:59.712Z,26.39
2023-04-01T00:30:59.752Z,26.40
2023-04-01T00:31:59.842Z,26.40
2023-04-01T00:32:59.847Z,26.41
2023-04-01T00:33:59.840Z,26.39
2023-04-01T00:34:59.902Z,26.39
2023-04-01T00:35:59.978Z,26.41
2023-04-01T00:36:59.978Z,26.40
2023-04-01T00:37:59.997Z,26.40
2023-04-01T00:39:00.121Z,26.42
2023-04-01T00:40:00.112Z,26.41
2023-04-01T00:41:00.133Z,26.39
2023-04-01T00:42:00.150Z,26.40
2023-04-01T00:43:00.152Z,26.39
2023-04-01T00:44:00.191Z,26.41
2023-04-01T00:45:00.251Z,26.41
2023-04-01T00:46:00.261Z,26.42
2023-04-01T00:47:00.383Z,26.42
2023-04-01T00:48:00.413Z,26.45
2023-04-01T00:49:00.373Z,26.45
2023-04-01T00:50:00.437Z,26.44
2023-04-01T00:51:00.453Z,26.45
2023-04-01T00:52:00.499Z,26.43
2023-04-01T00:53:00.532Z,26.47
2023-04-01T00:54:00.563Z,26.45
2023-04-01T00:55:00.622Z,26.46
2023-04-01T00:56:00.645Z,26.46
2023-04-01T00:57:00.711Z,26.46
2023-04-01T00:58:00.724Z,26.47
2023-04-01T00:59:00.742Z,26.50
2023-04-01T01:00:00.784Z,26.48
2023-04-01T01:01:00.979Z,26.46
2023-04-01T01:02:00.871Z,26.46
2023-04-01T01:03:00.902Z,26.46
2023-04-01T01:04:00.929Z,26.46
2023-04-01T01:05:00.980Z,26.48
2023-04-01T01:06:00.991Z,26.47
2023-04-01T01:07:01.032Z,26.47
2023-04-01T01:08:01.062Z,26.47
2023-04-01T01:09:01.102Z,26.48
2023-04-01T01:10:01.183Z,26.49
2023-04-01T01:11:01.187Z,26.47
2023-04-01T01:12:01.214Z,26.50
2023-04-01T01:13:01.276Z,26.48
2023-04-01T01:14:01.287Z,26.48
2023-04-01T01:15:01.335Z,26.45
2023-04-01T01:16:01.359Z,26.46
2023-04-01T01:17:01.494Z,26.49
2023-04-01T01:18:01.460Z,26.50
2023-04-01T01:19:01.477Z,26.52
2023-04-01T01:20:02.421Z,26.50
2023-04-01T01:21:01.557Z,26.51
2023-04-01T01:22:01.590Z,26.50
2023-04-01T01:23:01.698Z,26.49
2023-04-01T01:24:01.644Z,26.46
2023-04-01T01:25:01.706Z,26.45
2023-04-01T01:26:01.720Z,26.48
2023-04-01T01:27:01.782Z,26.46
2023-04-01T01:28:01.774Z,26.44
2023-04-01T01:29:01.824Z,26.44
2023-04-01T01:30:01.856Z,26.43
2023-04-01T01:31:01.928Z,26.41
2023-04-01T01:32:01.908Z,26.39
2023-04-01T01:33:01.971Z,26.37
2023-04-01T01:34:01.993Z,26.37
2023-04-01T01:35:02.047Z,26.39
2023-04-01T01:36:02.123Z,26.39
2023-04-01T01:37:02.099Z,26.40
2023-04-01T01:38:02.152Z,26.41
2023-04-01T01:39:02.170Z,26.41
2023-04-01T01:40:02.242Z,26.41
2023-04-01T01:41:02.270Z,26.41
2023-04-01T01:42:02.275Z,26.42
2023-04-01T01:43:02.313Z,26.43
2023-04-01T01:44:02.345Z,26.41
2023-04-01T01:45:02.471Z,26.42
2023-04-01T01:46:02.452Z,26.41
2023-04-01T01:47:02.472Z,26.42
2023-04-01T01:48:02.564Z,26.41
2023-04-01T01:49:02.545Z,26.41
2023-04-01T01:50:02.560Z,26.41
2023-04-01T01:51:02.608Z,26.38
2023-04-01T01:52:02.652Z,26.36
2023-04-01T01:53:02.664Z,26.38
2023-04-01T01:54:02.726Z,26.35
2023-04-01T01:55:02.744Z,26.36
2023-04-01T01:56:02.789Z,26.36
2023-04-01T01:57:02.845Z,26.35
2023-04-01T01:58:02.847Z,26.36
2023-04-01T01:59:02.896Z,26.33
2023-04-01T02:00:02.941Z,26.37
2023-04-01T02:01:03.031Z,26.35
2023-04-01T02:02:03.036Z,26.36
2023-04-01T02:03:03.101Z,26.36
2023-04-01T02:04:03.098Z,26.34
2023-04-01T02:05:03.109Z,26.34
2023-04-01T02:06:03.141Z,26.34
2023-04-01T02:07:03.281Z,26.35
2023-04-01T02:08:03.211Z,26.32
2023-04-01T02:09:03.228Z,26.34
2023-04-01T02:10:03.272Z,26.31
2023-04-01T02:11:03.314Z,26.31
2023-04-01T02:12:03.345Z,26.31
2023-04-01T02:13:03.390Z,26.29
2023-04-01T02:14:03.414Z,26.33
2023-04-01T02:15:03.449Z,26.32
2023-04-01T02:16:03.509Z,26.31
2023-04-01T02:17:03.519Z,26.30
2023-04-01T02:18:03.654Z,26.33
2023-04-01T02:19:03.624Z,26.35
2023-04-01T02:20:03.621Z,26.33
2023-04-01T02:21:03.678Z,26.34
2023-04-01T02:22:03.705Z,26.34
2023-04-01T02:23:03.725Z,26.34
2023-04-01T02:24:03.770Z,26.36
2023-04-01T02:25:03.798Z,26.34
2023-04-01T02:26:03.823Z,26.33
2023-04-01T02:27:03.863Z,26.36
2023-04-01T02:28:03.893Z,26.33
2023-04-01T02:29:03.917Z,26.32
2023-04-01T02:30:04.068Z,26.32
2023-04-01T02:31:04.039Z,26.33
2023-04-01T02:32:04.055Z,26.34
2023-04-01T02:33:04.083Z,26.31
2023-04-01T02:34:04.103Z,26.33
2023-04-01T02:35:04.139Z,26.28
2023-04-01T02:36:04.271Z,26.25
2023-04-01T02:37:04.187Z,26.23
2023-04-01T02:38:04.236Z,26.24
2023-04-01T02:39:04.251Z,26.22
2023-04-01T02:40:04.305Z,26.22
2023-04-01T02:41:04.319Z,26.21
2023-04-01T02:42:04.361Z,26.18
2023-04-01T02:43:04.398Z,26.17
2023-04-01T02:44:04.438Z,26.19
2023-04-01T02:45:04.488Z,26.17
2023-04-01T02:46:04.541Z,26.20
2023-04-01T02:47:04.798Z,26.18
2023-04-01T02:48:04.636Z,26.19
2023-04-01T02:49:04.646Z,26.17
2023-04-01T02:50:04.686Z,26.16
2023-04-01T02:51:04.719Z,26.20
2023-04-01T02:52:04.751Z,26.21
2023-04-01T02:53:04.849Z,26.20
2023-04-01T02:54:04.798Z,26.20
2023-04-01T02:55:04.848Z,26.20
2023-04-01T02:56:04.887Z,26.21
2023-04-01T02:57:04.949Z,26.20
2023-04-01T02:58:04.955Z,26.21
2023-04-01T02:59:05.025Z,26.22
2023-04-01T03:00:05.072Z,26.21
2023-04-01T03:01:05.119Z,26.21
2023-04-01T03:02:05.114Z,26.22
2023-04-01T03:03:05.192Z,26.23
2023-04-01T03:04:05.162Z,26.21
2023-04-01T03:05:05.206Z,26.20
2023-04-01T03:06:05.231Z,26.19
2023-04-01T03:07:05.278Z,26.18
2023-04-01T03:08:05.296Z,26.16
2023-04-01T03:09:05.317Z,26.15
2023-04-01T03:10:05.349Z,26.16
2023-04-01T03:11:05.392Z,26.19
2023-04-01T03:12:05.430Z,26.18
2023-04-01T03:13:05.437Z,26.17
2023-04-01T03:14:05.466Z,26.18
2023-04-01T03:15:10.725Z,26.17
2023-04-01T03:16:06.537Z,26.17
2023-04-01T03:17:05.513Z,26.18
2023-04-01T03:18:05.508Z,26.18
2023-04-01T03:19:05.470Z,26.18
2023-04-01T03:20:05.461Z,26.19
2023-04-01T03:21:05.477Z,26.19
2023-04-01T03:22:05.470Z,26.19
2023-04-01T03:23:05.467Z,26.17
2023-04-01T03:24:05.445Z,26.19
2023-04-01T03:25:05.443Z,26.18
2023-04-01T03:26:05.443Z,26.16
2023-04-01T03:27:05.455Z,26.18
2023-04-01T03:28:05.417Z,26.16
2023-04-01T03:29:05.424Z,26.16
2023-04-01T03:30:05.534Z,26.19
2023-04-01T03:31:05.534Z,26.17
2023-04-01T03:32:05.524Z,26.18
2023-04-01T03:33:05.614Z,26.19
2023-04-01T03:34:05.587Z,26.21
2023-04-01T03:35:05.630Z,26.18
2023-04-01T03:36:05.674Z,26.21
2023-04-01T03:37:05.685Z,26.18
2023-04-01T03:38:05.732Z,26.21
2023-04-01T03:39:05.750Z,26.19
2023-04-01T03:40:05.788Z,26.19
2023-04-01T03:41:05.795Z,26.19
2023-04-01T03:42:05.842Z,26.20
2023-04-01T03:43:05.917Z,26.20
2023-04-01T03:44:05.896Z,26.18
2023-04-01T03:45:05.947Z,26.19
2023-04-01T03:46:06.008Z,26.19
2023-04-01T03:47:06.004Z,26.19
2023-04-01T03:48:06.074Z,26.19
2023-04-01T03:49:06.078Z,26.19
2023-04-01T03:50:06.119Z,26.17
2023-04-01T03:51:06.142Z,26.18
2023-04-01T03:52:06.163Z,26.18
2023-04-01T03:53:06.195Z,26.16
2023-04-01T03:54:06.212Z,26.18
2023-04-01T03:55:06.256Z,26.16
2023-04-01T03:56:06.291Z,26.18
2023-04-01T03:57:06.422Z,26.17
2023-04-01T03:58:06.392Z,26.16
2023-04-01T03:59:06.397Z,26.15
2023-04-01T04:00:06.430Z,26.14
2023-04-01T04:01:06.469Z,26.16
2023-04-01T04:02:06.517Z,26.14
2023-04-01T04:03:06.648Z,26.15
2023-04-01T04:04:06.648Z,26.17
2023-04-01T04:05:06.633Z,26.18
2023-04-01T04:06:06.647Z,26.17
2023-04-01T04:07:06.679Z,26.15
2023-04-01T04:08:06.715Z,26.17
2023-04-01T04:09:06.742Z,26.18
2023-04-01T04:10:06.796Z,26.18
2023-04-01T04:11:06.819Z,26.19
2023-04-01T04:12:06.844Z,26.19
2023-04-01T04:13:07.886Z,26.20
2023-04-01T04:14:06.932Z,26.20
2023-04-01T04:15:06.933Z,26.20
2023-04-01T04:16:07.015Z,26.22
2023-04-01T04:17:07.020Z,26.21
2023-04-01T04:18:07.098Z,26.20
2023-04-01T04:19:07.076Z,26.18
2023-04-01T04:20:07.117Z,26.20
2023-04-01T04:21:07.146Z,26.18
2023-04-01T04:22:07.182Z,26.17
2023-04-01T04:23:07.222Z,26.20
2023-04-01T04:24:07.229Z,26.20
2023-04-01T04:25:07.273Z,26.22
2023-04-01T04:26:07.307Z,26.20
2023-04-01T04:27:07.402Z,26.20
2023-04-01T04:28:07.360Z,26.21
2023-04-01T04:29:07.427Z,26.20
2023-04-01T04:30:07.468Z,26.21
2023-04-01T04:31:07.525Z,26.19
2023-04-01T04:32:07.498Z,26.22
2023-04-01T04:33:07.592Z,26.20
2023-04-01T04:34:07.583Z,26.20
2023-04-01T04:35:07.713Z,26.19
2023-04-01T04:36:07.761Z,26.19
2023-04-01T04:37:07.684Z,26.19
2023-04-01T04:38:07.718Z,26.18
2023-04-01T04:39:07.757Z,26.20
2023-04-01T04:40:07.811Z,26.18
2023-04-01T04:41:07.845Z,26.18
2023-04-01T04:42:07.894Z,26.17
2023-04-01T04:43:07.901Z,26.17
2023-04-01T04:44:07.978Z,26.19
2023-04-01T04:45:07.993Z,26.17
2023-04-01T04:46:08.020Z,26.19
2023-04-01T04:47:08.196Z,26.19
2023-04-01T04:48:08.139Z,26.18
2023-04-01T04:49:08.132Z,26.18
2023-04-01T04:50:08.155Z,26.16
2023-04-01T04:51:08.202Z,26.18
2023-04-01T04:52:08.250Z,26.19
2023-04-01T04:53:08.271Z,26.19
2023-04-01T04:54:08.314Z,26.18
2023-04-01T04:55:08.331Z,26.17
2023-04-01T04:56:08.369Z,26.19
2023-04-01T04:57:08.459Z,26.20
2023-04-01T04:58:08.454Z,26.22
2023-04-01T04:59:08.504Z,26.19
2023-04-01T05:00:08.540Z,26.22
2023-04-01T05:01:08.565Z,26.22
2023-04-01T05:02:08.606Z,26.20
2023-04-01T05:03:08.741Z,26.23
2023-04-01T05:04:08.665Z,26.22
2023-04-01T05:05:08.686Z,26.22
2023-04-01T05:06:08.722Z,26.21
2023-04-01T05:07:08.759Z,26.20
2023-04-01T05:08:08.784Z,26.22
2023-04-01T05:09:08.821Z,26.22
2023-04-01T05:10:08.871Z,26.20
2023-04-01T05:11:09.813Z,26.21
2023-04-01T05:12:08.946Z,26.21
2023-04-01T05:13:08.962Z,26.18
2023-04-01T05:14:08.993Z,26.22
2023-04-01T05:15:09.042Z,26.19
2023-04-01T05:16:09.085Z,26.21
2023-04-01T05:17:09.213Z,26.20
2023-04-01T05:18:09.196Z,26.20
2023-04-01T05:19:09.191Z,26.21
2023-04-01T05:20:09.223Z,26.22
2023-04-01T05:21:09.251Z,26.22
2023-04-01T05:22:09.353Z,26.20
2023-04-01T05:23:09.354Z,26.21
2023-04-01T05:24:09.354Z,26.21
2023-04-01T05:25:09.406Z,26.21
2023-04-01T05:26:09.409Z,26.21
2023-04-01T05:27:09.464Z,26.20
2023-04-01T05:28:09.483Z,26.22
2023-04-01T05:29:09.515Z,26.20
2023-04-01T05:30:09.561Z,26.21
2023-04-01T05:31:09.647Z,26.21
2023-04-01T05:32:09.631Z,26.21
2023-04-01T05:33:09.711Z,26.19
2023-04-01T05:34:09.690Z,26.19
2023-04-01T05:35:09.706Z,26.19
2023-04-01T05:36:09.809Z,26.22
2023-04-01T05:37:09.783Z,26.20
2023-04-01T05:38:09.826Z,26.18
2023-04-01T05:39:09.857Z,26.19
2023-04-01T05:40:09.892Z,26.20
2023-04-01T05:41:09.927Z,26.19
2023-04-01T05:42:09.968Z,26.19
2023-04-01T05:43:10.029Z,26.20
2023-04-01T05:44:10.023Z,26.20
2023-04-01T05:45:10.045Z,26.19
2023-04-01T05:46:10.122Z,26.20
2023-04-01T05:47:10.123Z,26.21
2023-04-01T05:48:10.143Z,26.20
2023-04-01T05:49:10.192Z,26.22
2023-04-01T05:50:10.222Z,26.22
2023-04-01T05:51:10.245Z,26.21
2023-04-01T05:52:10.295Z,26.21
2023-04-01T05:53:10.328Z,26.21
2023-04-01T05:54:10.367Z,26.20
2023-04-01T05:55:10.401Z,26.20
2023-04-01T05:56:10.416Z,26.22
2023-04-01T05:57:10.482Z,26.21
2023-04-01T05:58:10.491Z,26.21
2023-04-01T05:59:10.532Z,26.22
2023-04-01T06:00:10.574Z,26.22
2023-04-01T06:01:14.188Z,26.23
2023-04-01T06:02:11.604Z,26.24
2023-04-01T06:03:10.683Z,26.23
2023-04-01T06:04:10.655Z,26.23
2023-04-01T06:05:10.594Z,26.24
2023-04-01T06:06:10.556Z,26.23
2023-04-01T06:07:10.565Z,26.27
2023-04-01T06:08:10.575Z,26.24
2023-04-01T06:09:10.537Z,26.29
2023-04-01T06:10:10.546Z,26.28
2023-04-01T06:11:10.521Z,26.29
2023-04-01T06:12:10.530Z,26.28
2023-04-01T06:13:10.520Z,26.31
2023-04-01T06:14:10.501Z,26.31
2023-04-01T06:15:10.553Z,26.32
2023-04-01T06:16:10.595Z,26.32
2023-04-01T06:17:10.612Z,26.35
2023-04-01T06:18:10.719Z,26.33
2023-04-01T06:19:11.064Z,26.31
2023-04-01T06:20:10.716Z,26.34
2023-04-01T06:21:10.740Z,26.33
2023-04-01T06:22:10.780Z,26.31
2023-04-01T06:23:10.835Z,26.34
2023-04-01T06:24:10.827Z,26.37
2023-04-01T06:25:10.860Z,26.35
2023-04-01T06:26:10.897Z,26.37
2023-04-01T06:27:10.932Z,26.37
2023-04-01T06:28:10.969Z,26.38
2023-04-01T06:29:11.000Z,26.38
2023-04-01T06:30:11.035Z,26.38
2023-04-01T06:31:11.136Z,26.36
2023-04-01T06:32:11.407Z,26.34
2023-04-01T06:33:11.232Z,26.34
2023-04-01T06:34:11.161Z,26.32
2023-04-01T06:35:11.216Z,26.33
2023-04-01T06:36:11.281Z,26.32
2023-04-01T06:37:11.285Z,26.32
2023-04-01T06:38:11.320Z,26.31
2023-04-01T06:39:11.476Z,26.33
2023-04-01T06:40:11.389Z,26.34
2023-04-01T06:41:11.429Z,26.33
2023-04-01T06:42:11.459Z,26.33
2023-04-01T06:43:11.497Z,26.28
2023-04-01T06:44:11.589Z,26.33
2023-04-01T06:45:11.579Z,26.31
2023-04-01T06:46:11.657Z,26.27
2023-04-01T06:47:11.907Z,26.27
2023-04-01T06:48:11.740Z,26.28
2023-04-01T06:49:11.704Z,26.28
2023-04-01T06:50:11.752Z,26.26
2023-04-01T06:51:11.797Z,26.27
2023-04-01T06:52:11.833Z,26.26
2023-04-01T06:53:11.863Z,26.26
2023-04-01T06:54:11.909Z,26.26
2023-04-01T06:55:11.943Z,26.25
2023-04-01T06:56:11.984Z,26.24
2023-04-01T06:57:12.135Z,26.27
2023-04-01T06:58:12.088Z,26.25
2023-04-01T06:59:12.087Z,26.28
2023-04-01T07:00:12.138Z,26.28
2023-04-01T07:01:12.267Z,26.26
2023-04-01T07:02:12.191Z,26.28
2023-04-01T07:03:12.261Z,26.24
2023-04-01T07:04:12.365Z,26.25
2023-04-01T07:05:12.293Z,26.25
2023-04-01T07:06:12.307Z,26.23
2023-04-01T07:07:12.428Z,26.25
2023-04-01T07:08:12.385Z,26.24
2023-04-01T07:09:12.433Z,26.24
2023-04-01T07:10:12.447Z,26.25
2023-04-01T07:11:12.467Z,26.26
2023-04-01T07:12:12.482Z,26.28
2023-04-01T07:13:12.510Z,26.25
2023-04-01T07:14:12.514Z,26.26
2023-04-01T07:15:12.546Z,26.24
2023-04-01T07:16:12.602Z,26.25
2023-04-01T07:17:12.638Z,26.25
2023-04-01T07:18:12.588Z,26.23
2023-04-01T07:19:12.605Z,26.23
2023-04-01T07:20:12.646Z,26.22
2023-04-01T07:21:12.645Z,26.26
2023-04-01T07:22:12.820Z,26.29
2023-04-01T07:23:12.682Z,26.29
2023-04-01T07:24:12.719Z,26.32
2023-04-01T07:25:12.722Z,26.29
2023-04-01T07:26:12.736Z,26.26
2023-04-01T07:27:12.722Z,26.26
2023-04-01T07:28:12.756Z,26.27
2023-04-01T07:29:12.748Z,26.24
2023-04-01T07:30:12.770Z,26.22
2023-04-01T07:31:12.853Z,26.24
2023-04-01T07:32:12.784Z,26.23
2023-04-01T07:33:12.801Z,26.24
2023-04-01T07:34:12.824Z,26.25
2023-04-01T07:35:12.835Z,26.28
2023-04-01T07:36:12.835Z,26.28
2023-04-01T07:37:12.830Z,26.29
2023-04-01T07:38:12.875Z,26.28
2023-04-01T07:39:12.882Z,26.27
2023-04-01T07:40:12.904Z,26.32
2023-04-01T07:41:12.913Z,26.30
2023-04-01T07:42:12.910Z,26.31
2023-04-01T07:43:12.940Z,26.33
2023-04-01T07:44:12.936Z,26.33
2023-04-01T07:45:12.978Z,26.36
2023-04-01T07:46:13.027Z,26.36
2023-04-01T07:47:13.000Z,26.39
2023-04-01T07:48:12.999Z,26.36
2023-04-01T07:49:13.025Z,26.37
2023-04-01T07:50:13.019Z,26.39
2023-04-01T07:51:13.047Z,26.39
2023-04-01T07:52:13.048Z,26.39
2023-04-01T07:53:13.072Z,26.37
2023-04-01T07:54:13.096Z,26.38
2023-04-01T07:55:13.129Z,26.37
2023-04-01T07:56:13.122Z,26.37
2023-04-01T07:57:13.119Z,26.39
2023-04-01T07:58:13.134Z,26.38
2023-04-01T07:59:13.157Z,26.41
2023-04-01T08:00:13.155Z,26.42
2023-04-01T08:01:13.158Z,26.43
2023-04-01T08:02:13.147Z,26.52
2023-04-01T08:03:13.308Z,26.58
2023-04-01T08:04:13.248Z,26.56
2023-04-01T08:05:13.167Z,26.59
2023-04-01T08:06:13.200Z,26.57
2023-04-01T08:07:13.170Z,26.55
2023-04-01T08:08:13.187Z,26.54
2023-04-01T08:09:13.204Z,26.54
2023-04-01T08:10:13.209Z,26.56
2023-04-01T08:11:13.204Z,26.55
2023-04-01T08:12:13.192Z,26.53
2023-04-01T08:13:13.182Z,26.60
2023-04-01T08:14:13.179Z,26.58
2023-04-01T08:15:13.196Z,26.57
2023-04-01T08:16:13.216Z,26.58
2023-04-01T08:17:13.184Z,26.58
2023-04-01T08:18:13.187Z,26.54
2023-04-01T08:19:13.192Z,26.52
2023-04-01T08:20:13.185Z,26.48
2023-04-01T08:21:13.181Z,26.48
2023-04-01T08:22:13.162Z,26.46
2023-04-01T08:23:13.198Z,26.51
2023-04-01T08:24:13.185Z,26.54
2023-04-01T08:25:13.174Z,26.55
2023-04-01T08:26:13.156Z,26.53
2023-04-01T08:27:13.153Z,26.47
2023-04-01T08:28:13.161Z,26.44
2023-04-01T08:29:13.159Z,26.33
2023-04-01T08:30:13.152Z,26.29
2023-04-01T08:31:13.166Z,26.27
2023-04-01T08:32:13.242Z,26.26
2023-04-01T08:33:13.313Z,26.21
2023-04-01T08:34:13.157Z,26.26
2023-04-01T08:35:13.166Z,26.29
2023-04-01T08:36:13.163Z,26.32
2023-04-01T08:37:13.140Z,26.35
2023-04-01T08:38:13.141Z,26.40
2023-04-01T08:39:13.141Z,26.37
2023-04-01T08:40:13.122Z,26.35
2023-04-01T08:41:13.124Z,26.44
2023-04-01T08:42:13.126Z,26.44
2023-04-01T08:43:13.151Z,26.34
2023-04-01T08:44:13.127Z,26.34
2023-04-01T08:45:14.530Z,26.35
2023-04-01T08:46:13.182Z,26.35
2023-04-01T08:47:13.103Z,26.40
2023-04-01T08:48:13.167Z,26.45
2023-04-01T08:49:13.109Z,26.49
2023-04-01T08:50:13.111Z,26.47
2023-04-01T08:51:13.105Z,26.47
2023-04-01T08:52:13.112Z,26.45
2023-04-01T08:53:13.128Z,26.43
2023-04-01T08:54:13.136Z,26.37
2023-04-01T08:55:13.127Z,26.33
2023-04-01T08:56:13.119Z,26.35
2023-04-01T08:57:13.149Z,26.39
2023-04-01T08:58:13.124Z,26.41
2023-04-01T08:59:13.142Z,26.44
2023-04-01T09:00:13.151Z,26.38
2023-04-01T09:01:13.134Z,26.43
2023-04-01T09:02:13.165Z,26.42
2023-04-01T09:03:13.205Z,26.44
2023-04-01T09:04:13.219Z,26.40
2023-04-01T09:05:13.169Z,26.37
2023-04-01T09:06:13.141Z,26.31
2023-04-01T09:07:13.148Z,26.28
2023-04-01T09:08:13.140Z,26.24
2023-04-01T09:09:13.131Z,26.24
2023-04-01T09:10:13.149Z,26.18
2023-04-01T09:11:13.134Z,26.07
2023-04-01T09:12:13.182Z,26.08
2023-04-01T09:13:13.122Z,26.16
2023-04-01T09:14:13.112Z,26.13
2023-04-01T09:15:13.131Z,26.19
2023-04-01T09:16:13.145Z,26.21
2023-04-01T09:17:13.161Z,26.16
2023-04-01T09:18:13.160Z,26.21
2023-04-01T09:19:13.185Z,26.19
2023-04-01T09:20:13.214Z,26.16
2023-04-01T09:21:13.187Z,26.09
2023-04-01T09:22:13.202Z,26.06
2023-04-01T09:23:13.203Z,26.04
2023-04-01T09:24:13.203Z,26.09
2023-04-01T09:25:13.236Z,26.12
2023-04-01T09:26:13.255Z,25.96
2023-04-01T09:27:13.276Z,25.90
2023-04-01T09:28:13.275Z,25.88
2023-04-01T09:29:13.309Z,25.89
2023-04-01T09:30:13.348Z,25.80
2023-04-01T09:31:13.366Z,25.85
2023-04-01T09:32:13.324Z,25.82
2023-04-01T09:33:13.383Z,25.75
2023-04-01T09:34:13.365Z,25.94
2023-04-01T09:35:13.372Z,25.86
2023-04-01T09:36:13.399Z,25.82
2023-04-01T09:37:13.381Z,25.86
2023-04-01T09:38:13.368Z,25.90
2023-04-01T09:39:13.409Z,25.83
2023-04-01T09:40:13.368Z,25.89
2023-04-01T09:41:13.392Z,25.88
2023-04-01T09:42:13.390Z,25.83
2023-04-01T09:43:13.401Z,25.89
2023-04-01T09:44:13.410Z,25.82
2023-04-01T09:45:13.428Z,25.78
2023-04-01T09:46:13.512Z,25.81
2023-04-01T09:47:13.453Z,25.89
2023-04-01T09:48:13.544Z,25.84
2023-04-01T09:49:13.540Z,25.85
2023-04-01T09:50:13.584Z,25.85
2023-04-01T09:51:13.600Z,25.83
2023-04-01T09:52:13.638Z,25.88
2023-04-01T09:53:13.690Z,25.87
2023-04-01T09:54:13.726Z,25.85
2023-04-01T09:55:13.767Z,25.77
2023-04-01T09:56:13.798Z,25.87
2023-04-01T09:57:13.891Z,25.69
2023-04-01T09:58:13.891Z,25.70
2023-04-01T09:59:13.920Z,25.80
2023-04-01T10:00:13.956Z,25.73
2023-04-01T10:01:13.989Z,25.63
2023-04-01T10:02:14.033Z,25.67
2023-04-01T10:03:14.073Z,25.63
2023-04-01T10:04:14.124Z,25.68
2023-04-01T10:05:14.225Z,25.66
2023-04-01T10:06:14.231Z,25.70
2023-04-01T10:07:14.241Z,25.59
2023-04-01T10:08:14.278Z,25.61
2023-04-01T10:09:14.328Z,25.55
2023-04-01T10:10:14.406Z,25.61
2023-04-01T10:11:14.444Z,25.58
2023-04-01T10:12:14.505Z,25.56
2023-04-01T10:13:14.552Z,25.58
2023-04-01T10:14:14.618Z,25.57
2023-04-01T10:15:14.650Z,25.53
2023-04-01T10:16:14.788Z,25.60
2023-04-01T10:17:14.736Z,25.55
2023-04-01T10:18:14.771Z,25.53
2023-04-01T10:19:14.786Z,25.53
2023-04-01T10:20:14.820Z,25.60
2023-04-01T10:21:14.858Z,25.62
2023-04-01T10:22:14.893Z,25.57
2023-04-01T10:23:14.980Z,25.55
2023-04-01T10:24:15.004Z,25.50
2023-04-01T10:25:15.084Z,25.44
2023-04-01T10:26:15.090Z,25.44
2023-04-01T10:27:15.135Z,25.48
2023-04-01T10:28:15.191Z,25.48
2023-04-01T10:29:15.269Z,25.62
2023-04-01T10:30:15.298Z,25.54
2023-04-01T10:31:15.415Z,25.53
2023-04-01T10:32:15.469Z,25.50
2023-04-01T10:33:15.441Z,25.41
2023-04-01T10:34:15.548Z,25.36
2023-04-01T10:35:15.559Z,25.35
2023-04-01T10:36:15.657Z,25.37
2023-04-01T10:37:15.627Z,25.44
2023-04-01T10:38:15.707Z,25.32
2023-04-01T10:39:15.743Z,25.38
2023-04-01T10:40:15.830Z,25.27
2023-04-01T10:41:15.857Z,25.28
2023-04-01T10:42:15.911Z,25.30
2023-04-01T10:43:15.965Z,25.36
2023-04-01T10:44:15.979Z,25.31
2023-04-01T10:45:16.046Z,25.27
2023-04-01T10:46:17.026Z,25.30
2023-04-01T10:47:16.141Z,25.42
2023-04-01T10:48:16.241Z,25.26
2023-04-01T10:49:16.244Z,25.32
2023-04-01T10:50:16.298Z,25.25
2023-04-01T10:51:16.329Z,25.18
2023-04-01T10:52:16.367Z,25.20
2023-04-01T10:53:16.440Z,25.23
2023-04-01T10:54:16.493Z,25.14
2023-04-01T10:55:16.581Z,25.22
2023-04-01T10:56:16.626Z,25.17
2023-04-01T10:57:16.698Z,25.05
2023-04-01T10:58:16.791Z,25.08
2023-04-01T10:59:16.805Z,25.11
2023-04-01T11:00:16.870Z,25.22
2023-04-01T11:01:16.959Z,25.10
2023-04-01T11:02:17.017Z,25.12
2023-04-01T11:03:17.289Z,25.09
2023-04-01T11:04:17.113Z,25.06
2023-04-01T11:05:19.488Z,25.13
2023-04-01T11:06:17.188Z,25.10
2023-04-01T11:07:17.160Z,25.02
2023-04-01T11:08:17.179Z,24.96
2023-04-01T11:09:17.159Z,24.95
2023-04-01T11:10:17.156Z,25.09
2023-04-01T11:11:17.138Z,25.17
2023-04-01T11:12:17.133Z,25.10
2023-04-01T11:13:17.136Z,25.11
2023-04-01T11:14:17.129Z,25.05
2023-04-01T11:15:17.150Z,24.91
2023-04-01T11:16:18.371Z,24.89
2023-04-01T11:17:17.096Z,24.82
2023-04-01T11:18:17.109Z,24.92
2023-04-01T11:19:17.084Z,24.93
2023-04-01T11:20:17.118Z,24.84
2023-04-01T11:21:17.085Z,24.88
2023-04-01T11:22:17.087Z,24.83
2023-04-01T11:23:17.060Z,24.99
2023-04-01T11:24:17.056Z,24.76
2023-04-01T11:25:17.060Z,24.84
2023-04-01T11:26:17.052Z,24.79
2023-04-01T11:27:17.097Z,24.80
2023-04-01T11:28:17.023Z,24.81
2023-04-01T11:29:17.025Z,24.69
2023-04-01T11:30:17.014Z,24.76
2023-04-01T11:31:17.119Z,24.71
2023-04-01T11:32:17.171Z,24.83
2023-04-01T11:33:20.088Z,24.64
2023-04-01T11:34:17.218Z,24.58
2023-04-01T11:35:17.208Z,24.69
2023-04-01T11:36:17.200Z,24.56
2023-04-01T11:37:17.208Z,24.70
2023-04-01T11:38:17.176Z,24.52
2023-04-01T11:39:17.189Z,24.50
2023-04-01T11:40:17.208Z,24.43
2023-04-01T11:41:17.177Z,24.32
2023-04-01T11:42:17.150Z,24.48
2023-04-01T11:43:26.197Z,24.43
2023-04-01T11:44:18.221Z,24.61
2023-04-01T11:45:17.148Z,24.78
2023-04-01T11:46:17.237Z,24.66
2023-04-01T11:47:17.140Z,24.36
2023-04-01T11:48:17.112Z,24.49
2023-04-01T11:49:17.125Z,24.35
2023-04-01T11:50:17.106Z,24.37
2023-04-01T11:51:17.118Z,24.42
2023-04-01T11:52:17.141Z,24.39
2023-04-01T11:53:17.170Z,24.45
2023-04-01T11:54:17.237Z,24.51
2023-04-01T11:55:17.317Z,24.35
2023-04-01T11:56:17.386Z,24.31
2023-04-01T11:57:17.471Z,24.39
2023-04-01T11:58:17.490Z,24.25
2023-04-01T11:59:17.552Z,24.23
2023-04-01T12:00:17.602Z,24.49
2023-04-01T12:01:17.659Z,24.39
2023-04-01T12:02:20.022Z,24.41
2023-04-01T12:03:18.009Z,24.31
2023-04-01T12:04:17.801Z,24.48
2023-04-01T12:05:17.706Z,24.43
2023-04-01T12:06:17.801Z,24.37
2023-04-01T12:07:17.687Z,24.39
2023-04-01T12:08:17.668Z,24.40
2023-04-01T12:09:17.668Z,24.35
2023-04-01T12:10:17.674Z,24.21
2023-04-01T12:11:17.669Z,24.28
2023-04-01T12:12:17.666Z,24.34
2023-04-01T12:13:17.657Z,24.27
2023-04-01T12:14:17.638Z,24.24
2023-04-01T12:15:17.636Z,24.23
2023-04-01T12:16:17.656Z,24.33
2023-04-01T12:17:17.612Z,24.30
2023-04-01T12:18:17.615Z,24.17
2023-04-01T12:19:17.607Z,24.09
2023-04-01T12:20:17.603Z,23.90
2023-04-01T12:21:17.597Z,23.85
2023-04-01T12:22:17.589Z,23.87
2023-04-01T12:23:17.586Z,23.89
2023-04-01T12:24:17.606Z,23.96
2023-04-01T12:25:17.561Z,23.83
2023-04-01T12:26:17.570Z,23.83
2023-04-01T12:27:17.547Z,23.81
2023-04-01T12:28:17.558Z,23.87
2023-04-01T12:29:17.628Z,24.04
2023-04-01T12:30:17.541Z,23.92
2023-04-01T12:31:17.521Z,23.93
2023-04-01T12:32:17.703Z,23.86
2023-04-01T12:33:17.626Z,23.87
2023-04-01T12:34:17.676Z,23.82
2023-04-01T12:35:17.736Z,23.79
2023-04-01T12:36:17.818Z,23.78
2023-04-01T12:37:17.868Z,23.71
2023-04-01T12:38:19.195Z,23.78
2023-04-01T12:39:17.977Z,23.68
2023-04-01T12:40:18.046Z,23.77
2023-04-01T12:41:18.134Z,23.77
2023-04-01T12:42:18.152Z,23.77
2023-04-01T12:43:18.210Z,23.77
2023-04-01T12:44:18.259Z,23.71
2023-04-01T12:45:18.301Z,23.79
2023-04-01T12:46:18.498Z,23.78
2023-04-01T12:47:18.396Z,23.76
2023-04-01T12:48:18.436Z,23.76
2023-04-01T12:49:18.508Z,23.84
2023-04-01T12:50:18.550Z,23.91
2023-04-01T12:51:19.046Z,23.79
2023-04-01T12:52:18.663Z,23.71
2023-04-01T12:53:18.693Z,23.70